sensor_id;sensor_type;location;lat;lon;timestamp;P1;durP1;ratioP1;P2;durP2;ratioP2
37231;SDS011;23125;48.156;15.954;2022-08-14T00:02:03;11.10;;;7.53;;
37231;SDS011;23125;48.156;15.954;2022-08-14T00:04:30;9.38;;;7.07;;
37231;SDS011;23125;48.156;15.954;2022-08-14T00:06:58;9.20;;;6.90;;
37231;SDS011;23125;48.156;15.954;2022-08-14T00:09:24;8.75;;;6.45;;
37231;SDS011;23125;48.156;15.954;2022-08-14T00:11:49;8.60;;;7.25;;
37231;SDS011;23125;48.156;15.954;2022-08-14T00:14:16;9.35;;;6.93;;
37231;SDS011;23125;48.156;15.954;2022-08-14T00:16:42;9.75;;;7.50;;
37231;SDS011;23125;48.156;15.954;2022-08-14T00:19:08;8.40;;;6.93;;
37231;SDS011;23125;48.156;15.954;2022-08-14T00:21:34;9.30;;;6.68;;
37231;SDS011;23125;48.156;15.954;2022-08-14T00:24:01;8.70;;;6.97;;
37231;SDS011;23125;48.156;15.954;2022-08-14T00:26:28;10.05;;;7.30;;
37231;SDS011;23125;48.156;15.954;2022-08-14T00:28:54;8.35;;;6.53;;
37231;SDS011;23125;48.156;15.954;2022-08-14T00:31:21;9.48;;;6.97;;
37231;SDS011;23125;48.156;15.954;2022-08-14T00:33:47;9.02;;;6.93;;
37231;SDS011;23125;48.156;15.954;2022-08-14T00:36:14;8.95;;;7.10;;
37231;SDS011;23125;48.156;15.954;2022-08-14T00:38:40;10.00;;;6.70;;
37231;SDS011;23125;48.156;15.954;2022-08-14T00:41:07;11.60;;;7.72;;
37231;SDS011;23125;48.156;15.954;2022-08-14T00:43:33;10.20;;;7.30;;
37231;SDS011;23125;48.156;15.954;2022-08-14T00:46:07;8.18;;;6.68;;
37231;SDS011;23125;48.156;15.954;2022-08-14T00:48:35;8.90;;;7.30;;
37231;SDS011;23125;48.156;15.954;2022-08-14T00:51:03;9.32;;;6.93;;
37231;SDS011;23125;48.156;15.954;2022-08-14T00:53:33;11.07;;;7.35;;
37231;SDS011;23125;48.156;15.954;2022-08-14T00:56:01;8.65;;;7.32;;
37231;SDS011;23125;48.156;15.954;2022-08-14T00:58:28;10.15;;;7.40;;
37231;SDS011;23125;48.156;15.954;2022-08-14T01:01:18;9.63;;;7.47;;
37231;SDS011;23125;48.156;15.954;2022-08-14T01:03:43;9.07;;;6.90;;
37231;SDS011;23125;48.156;15.954;2022-08-14T01:06:10;7.97;;;6.22;;
37231;SDS011;23125;48.156;15.954;2022-08-14T01:11:08;9.40;;;7.22;;
37231;SDS011;23125;48.156;15.954;2022-08-14T01:13:40;8.70;;;6.53;;
37231;SDS011;23125;48.156;15.954;2022-08-14T01:16:09;9.60;;;6.60;;
37231;SDS011;23125;48.156;15.954;2022-08-14T01:18:37;7.03;;;5.90;;
37231;SDS011;23125;48.156;15.954;2022-08-14T01:21:31;6.25;;;5.35;;
37231;SDS011;23125;48.156;15.954;2022-08-14T01:24:00;6.20;;;5.55;;
37231;SDS011;23125;48.156;15.954;2022-08-14T01:26:27;7.97;;;5.95;;
37231;SDS011;23125;48.156;15.954;2022-08-14T01:28:55;7.07;;;5.55;;
37231;SDS011;23125;48.156;15.954;2022-08-14T01:31:25;6.88;;;5.60;;
37231;SDS011;23125;48.156;15.954;2022-08-14T01:33:53;9.77;;;6.00;;
37231;SDS011;23125;48.156;15.954;2022-08-14T01:38:49;7.65;;;5.88;;
37231;SDS011;23125;48.156;15.954;2022-08-14T01:41:21;6.22;;;5.60;;
37231;SDS011;23125;48.156;15.954;2022-08-14T01:43:53;5.53;;;4.75;;
37231;SDS011;23125;48.156;15.954;2022-08-14T01:46:32;6.10;;;5.50;;
37231;SDS011;23125;48.156;15.954;2022-08-14T01:49:00;6.55;;;5.57;;
37231;SDS011;23125;48.156;15.954;2022-08-14T01:51:28;6.50;;;5.50;;
37231;SDS011;23125;48.156;15.954;2022-08-14T01:53:56;6.60;;;5.65;;
37231;SDS011;23125;48.156;15.954;2022-08-14T01:56:26;7.38;;;5.63;;
37231;SDS011;23125;48.156;15.954;2022-08-14T01:59:00;5.88;;;5.28;;
37231;SDS011;23125;48.156;15.954;2022-08-14T02:01:28;6.60;;;5.45;;
37231;SDS011;23125;48.156;15.954;2022-08-14T02:03:54;6.43;;;5.70;;
37231;SDS011;23125;48.156;15.954;2022-08-14T02:06:21;6.25;;;5.65;;
37231;SDS011;23125;48.156;15.954;2022-08-14T02:08:48;6.47;;;5.88;;
37231;SDS011;23125;48.156;15.954;2022-08-14T02:11:14;6.68;;;5.80;;
37231;SDS011;23125;48.156;15.954;2022-08-14T02:13:49;7.40;;;5.13;;
37231;SDS011;23125;48.156;15.954;2022-08-14T02:16:25;6.97;;;6.20;;
37231;SDS011;23125;48.156;15.954;2022-08-14T02:21:24;6.70;;;5.68;;
37231;SDS011;23125;48.156;15.954;2022-08-14T02:23:52;6.15;;;5.18;;
37231;SDS011;23125;48.156;15.954;2022-08-14T02:26:20;7.90;;;5.78;;
37231;SDS011;23125;48.156;15.954;2022-08-14T02:28:52;7.55;;;6.22;;
37231;SDS011;23125;48.156;15.954;2022-08-14T02:31:20;5.63;;;4.90;;
37231;SDS011;23125;48.156;15.954;2022-08-14T02:33:46;7.00;;;5.80;;
37231;SDS011;23125;48.156;15.954;2022-08-14T02:36:13;6.20;;;5.40;;
37231;SDS011;23125;48.156;15.954;2022-08-14T02:38:40;6.78;;;5.32;;
37231;SDS011;23125;48.156;15.954;2022-08-14T02:41:08;6.82;;;5.80;;
37231;SDS011;23125;48.156;15.954;2022-08-14T02:43:37;6.10;;;5.28;;
37231;SDS011;23125;48.156;15.954;2022-08-14T02:46:05;5.93;;;5.32;;
37231;SDS011;23125;48.156;15.954;2022-08-14T02:51:02;6.50;;;5.47;;
37231;SDS011;23125;48.156;15.954;2022-08-14T02:53:29;6.22;;;5.47;;
37231;SDS011;23125;48.156;15.954;2022-08-14T02:55:56;6.80;;;5.38;;
37231;SDS011;23125;48.156;15.954;2022-08-14T02:58:23;7.78;;;5.30;;
37231;SDS011;23125;48.156;15.954;2022-08-14T03:00:51;6.53;;;5.72;;
37231;SDS011;23125;48.156;15.954;2022-08-14T03:03:18;7.40;;;5.40;;
37231;SDS011;23125;48.156;15.954;2022-08-14T03:05:48;7.40;;;6.10;;
37231;SDS011;23125;48.156;15.954;2022-08-14T03:08:16;7.40;;;5.50;;
37231;SDS011;23125;48.156;15.954;2022-08-14T03:10:43;7.10;;;6.07;;
37231;SDS011;23125;48.156;15.954;2022-08-14T03:13:10;6.47;;;5.57;;
37231;SDS011;23125;48.156;15.954;2022-08-14T03:15:36;6.82;;;5.45;;
37231;SDS011;23125;48.156;15.954;2022-08-14T03:18:10;8.55;;;5.88;;
37231;SDS011;23125;48.156;15.954;2022-08-14T03:20:38;6.97;;;5.32;;
37231;SDS011;23125;48.156;15.954;2022-08-14T03:23:04;5.75;;;5.10;;
37231;SDS011;23125;48.156;15.954;2022-08-14T03:25:33;7.05;;;5.90;;
37231;SDS011;23125;48.156;15.954;2022-08-14T03:28:03;6.18;;;5.57;;
37231;SDS011;23125;48.156;15.954;2022-08-14T03:30:31;6.57;;;5.05;;
37231;SDS011;23125;48.156;15.954;2022-08-14T03:32:58;6.75;;;5.60;;
37231;SDS011;23125;48.156;15.954;2022-08-14T03:35:24;6.18;;;5.15;;
37231;SDS011;23125;48.156;15.954;2022-08-14T03:37:51;6.05;;;5.35;;
37231;SDS011;23125;48.156;15.954;2022-08-14T03:40:19;6.10;;;5.28;;
37231;SDS011;23125;48.156;15.954;2022-08-14T03:42:47;5.93;;;4.85;;
37231;SDS011;23125;48.156;15.954;2022-08-14T03:45:13;5.63;;;5.03;;
37231;SDS011;23125;48.156;15.954;2022-08-14T03:47:39;5.65;;;4.82;;
37231;SDS011;23125;48.156;15.954;2022-08-14T03:50:06;5.75;;;4.93;;
37231;SDS011;23125;48.156;15.954;2022-08-14T03:55:02;6.15;;;5.03;;
37231;SDS011;23125;48.156;15.954;2022-08-14T03:57:33;5.35;;;4.75;;
37231;SDS011;23125;48.156;15.954;2022-08-14T04:00:00;5.88;;;5.28;;
37231;SDS011;23125;48.156;15.954;2022-08-14T04:02:31;7.40;;;5.35;;
37231;SDS011;23125;48.156;15.954;2022-08-14T04:04:57;6.18;;;5.07;;
37231;SDS011;23125;48.156;15.954;2022-08-14T04:07:23;5.93;;;5.22;;
37231;SDS011;23125;48.156;15.954;2022-08-14T04:09:49;5.93;;;5.30;;
37231;SDS011;23125;48.156;15.954;2022-08-14T04:12:15;6.95;;;4.97;;
37231;SDS011;23125;48.156;15.954;2022-08-14T04:14:44;5.30;;;4.80;;
37231;SDS011;23125;48.156;15.954;2022-08-14T04:17:10;5.25;;;4.75;;
37231;SDS011;23125;48.156;15.954;2022-08-14T04:19:38;6.30;;;5.10;;
37231;SDS011;23125;48.156;15.954;2022-08-14T04:22:04;5.88;;;5.30;;
37231;SDS011;23125;48.156;15.954;2022-08-14T04:24:31;5.68;;;5.07;;
37231;SDS011;23125;48.156;15.954;2022-08-14T04:26:57;5.82;;;5.10;;
37231;SDS011;23125;48.156;15.954;2022-08-14T04:29:23;6.90;;;5.65;;
37231;SDS011;23125;48.156;15.954;2022-08-14T04:31:49;6.70;;;4.95;;
37231;SDS011;23125;48.156;15.954;2022-08-14T04:34:15;5.57;;;4.97;;
37231;SDS011;23125;48.156;15.954;2022-08-14T04:36:41;5.88;;;5.05;;
37231;SDS011;23125;48.156;15.954;2022-08-14T04:39:25;6.05;;;5.45;;
37231;SDS011;23125;48.156;15.954;2022-08-14T04:42:10;6.95;;;5.13;;
37231;SDS011;23125;48.156;15.954;2022-08-14T04:44:54;6.05;;;5.43;;
37231;SDS011;23125;48.156;15.954;2022-08-14T04:47:20;6.32;;;5.60;;
37231;SDS011;23125;48.156;15.954;2022-08-14T04:50:04;6.32;;;5.53;;
37231;SDS011;23125;48.156;15.954;2022-08-14T04:52:31;7.03;;;5.88;;
37231;SDS011;23125;48.156;15.954;2022-08-14T04:54:56;8.02;;;5.93;;
37231;SDS011;23125;48.156;15.954;2022-08-14T04:57:23;6.45;;;5.82;;
37231;SDS011;23125;48.156;15.954;2022-08-14T04:59:50;7.22;;;6.18;;
37231;SDS011;23125;48.156;15.954;2022-08-14T05:02:18;7.82;;;6.00;;
37231;SDS011;23125;48.156;15.954;2022-08-14T05:04:48;8.27;;;6.75;;
37231;SDS011;23125;48.156;15.954;2022-08-14T05:07:14;7.80;;;6.28;;
37231;SDS011;23125;48.156;15.954;2022-08-14T05:09:40;7.50;;;6.68;;
37231;SDS011;23125;48.156;15.954;2022-08-14T05:12:06;9.15;;;6.82;;
37231;SDS011;23125;48.156;15.954;2022-08-14T05:14:32;8.45;;;6.97;;
37231;SDS011;23125;48.156;15.954;2022-08-14T05:16:58;7.80;;;6.85;;
37231;SDS011;23125;48.156;15.954;2022-08-14T05:19:24;8.48;;;7.10;;
37231;SDS011;23125;48.156;15.954;2022-08-14T05:21:51;8.00;;;6.78;;
37231;SDS011;23125;48.156;15.954;2022-08-14T05:24:24;7.25;;;6.43;;
37231;SDS011;23125;48.156;15.954;2022-08-14T05:26:50;7.65;;;6.78;;
37231;SDS011;23125;48.156;15.954;2022-08-14T05:29:16;7.13;;;6.25;;
37231;SDS011;23125;48.156;15.954;2022-08-14T05:31:42;8.57;;;7.65;;
37231;SDS011;23125;48.156;15.954;2022-08-14T05:34:07;8.35;;;6.88;;
37231;SDS011;23125;48.156;15.954;2022-08-14T05:36:35;7.45;;;6.55;;
37231;SDS011;23125;48.156;15.954;2022-08-14T05:39:01;7.85;;;6.78;;
37231;SDS011;23125;48.156;15.954;2022-08-14T05:41:29;7.93;;;6.47;;
37231;SDS011;23125;48.156;15.954;2022-08-14T05:43:57;8.77;;;6.47;;
37231;SDS011;23125;48.156;15.954;2022-08-14T05:46:23;7.80;;;7.00;;
37231;SDS011;23125;48.156;15.954;2022-08-14T05:48:51;9.15;;;7.03;;
37231;SDS011;23125;48.156;15.954;2022-08-14T05:51:19;9.63;;;6.97;;
37231;SDS011;23125;48.156;15.954;2022-08-14T05:53:45;8.40;;;6.85;;
37231;SDS011;23125;48.156;15.954;2022-08-14T05:56:12;8.15;;;6.63;;
37231;SDS011;23125;48.156;15.954;2022-08-14T05:58:38;8.75;;;7.18;;
37231;SDS011;23125;48.156;15.954;2022-08-14T06:01:04;8.57;;;6.35;;
37231;SDS011;23125;48.156;15.954;2022-08-14T06:03:30;7.68;;;6.88;;
37231;SDS011;23125;48.156;15.954;2022-08-14T06:05:56;11.75;;;7.10;;
37231;SDS011;23125;48.156;15.954;2022-08-14T06:08:29;9.10;;;7.40;;
37231;SDS011;23125;48.156;15.954;2022-08-14T06:10:58;7.32;;;6.38;;
37231;SDS011;23125;48.156;15.954;2022-08-14T06:13:45;7.88;;;7.07;;
37231;SDS011;23125;48.156;15.954;2022-08-14T06:16:15;9.43;;;7.20;;
37231;SDS011;23125;48.156;15.954;2022-08-14T06:21:07;7.30;;;6.40;;
37231;SDS011;23125;48.156;15.954;2022-08-14T06:23:33;8.43;;;6.60;;
37231;SDS011;23125;48.156;15.954;2022-08-14T06:25:59;7.03;;;6.22;;
37231;SDS011;23125;48.156;15.954;2022-08-14T06:28:25;8.02;;;7.00;;
37231;SDS011;23125;48.156;15.954;2022-08-14T06:30:51;8.20;;;6.45;;
37231;SDS011;23125;48.156;15.954;2022-08-14T06:33:18;8.40;;;6.90;;
37231;SDS011;23125;48.156;15.954;2022-08-14T06:35:47;8.15;;;6.70;;
37231;SDS011;23125;48.156;15.954;2022-08-14T06:38:17;8.13;;;7.25;;
37231;SDS011;23125;48.156;15.954;2022-08-14T06:40:45;7.88;;;6.80;;
37231;SDS011;23125;48.156;15.954;2022-08-14T06:43:12;7.90;;;6.70;;
37231;SDS011;23125;48.156;15.954;2022-08-14T06:45:39;7.70;;;6.15;;
37231;SDS011;23125;48.156;15.954;2022-08-14T06:48:13;7.32;;;6.50;;
37231;SDS011;23125;48.156;15.954;2022-08-14T06:50:47;7.15;;;6.25;;
37231;SDS011;23125;48.156;15.954;2022-08-14T06:53:15;10.10;;;7.03;;
37231;SDS011;23125;48.156;15.954;2022-08-14T06:55:46;8.57;;;7.13;;
37231;SDS011;23125;48.156;15.954;2022-08-14T06:58:14;7.43;;;6.55;;
37231;SDS011;23125;48.156;15.954;2022-08-14T07:00:41;7.68;;;6.45;;
37231;SDS011;23125;48.156;15.954;2022-08-14T07:03:26;7.05;;;5.95;;
37231;SDS011;23125;48.156;15.954;2022-08-14T07:06:12;8.10;;;6.50;;
37231;SDS011;23125;48.156;15.954;2022-08-14T07:08:39;7.88;;;6.63;;
37231;SDS011;23125;48.156;15.954;2022-08-14T07:11:08;7.25;;;6.30;;
37231;SDS011;23125;48.156;15.954;2022-08-14T07:13:34;6.90;;;6.15;;
37231;SDS011;23125;48.156;15.954;2022-08-14T07:16:01;7.43;;;6.50;;
37231;SDS011;23125;48.156;15.954;2022-08-14T07:18:29;7.38;;;6.40;;
37231;SDS011;23125;48.156;15.954;2022-08-14T07:20:59;6.28;;;5.65;;
37231;SDS011;23125;48.156;15.954;2022-08-14T07:23:26;7.03;;;6.13;;
37231;SDS011;23125;48.156;15.954;2022-08-14T07:25:56;6.90;;;6.20;;
37231;SDS011;23125;48.156;15.954;2022-08-14T07:28:24;7.15;;;6.43;;
37231;SDS011;23125;48.156;15.954;2022-08-14T07:30:59;6.78;;;6.03;;
37231;SDS011;23125;48.156;15.954;2022-08-14T07:33:28;7.30;;;6.50;;
37231;SDS011;23125;48.156;15.954;2022-08-14T07:36:01;8.88;;;6.25;;
37231;SDS011;23125;48.156;15.954;2022-08-14T07:38:30;7.68;;;6.30;;
37231;SDS011;23125;48.156;15.954;2022-08-14T07:40:56;7.85;;;6.93;;
37231;SDS011;23125;48.156;15.954;2022-08-14T07:43:24;8.23;;;7.10;;
37231;SDS011;23125;48.156;15.954;2022-08-14T07:45:50;10.00;;;7.43;;
37231;SDS011;23125;48.156;15.954;2022-08-14T07:48:16;10.63;;;7.00;;
37231;SDS011;23125;48.156;15.954;2022-08-14T07:50:42;7.88;;;7.03;;
37231;SDS011;23125;48.156;15.954;2022-08-14T07:53:08;7.38;;;6.47;;
37231;SDS011;23125;48.156;15.954;2022-08-14T07:55:34;8.95;;;7.28;;
37231;SDS011;23125;48.156;15.954;2022-08-14T07:58:00;7.15;;;6.45;;
37231;SDS011;23125;48.156;15.954;2022-08-14T08:00:27;8.30;;;7.10;;
37231;SDS011;23125;48.156;15.954;2022-08-14T08:02:53;9.52;;;7.05;;
37231;SDS011;23125;48.156;15.954;2022-08-14T08:05:21;7.50;;;6.72;;
37231;SDS011;23125;48.156;15.954;2022-08-14T08:07:49;8.10;;;7.05;;
37231;SDS011;23125;48.156;15.954;2022-08-14T08:10:20;8.98;;;7.47;;
37231;SDS011;23125;48.156;15.954;2022-08-14T08:13:09;8.05;;;7.05;;
37231;SDS011;23125;48.156;15.954;2022-08-14T08:15:40;7.65;;;6.78;;
37231;SDS011;23125;48.156;15.954;2022-08-14T08:18:11;8.40;;;7.38;;
37231;SDS011;23125;48.156;15.954;2022-08-14T08:20:40;7.57;;;6.82;;
37231;SDS011;23125;48.156;15.954;2022-08-14T08:23:10;8.00;;;7.20;;
37231;SDS011;23125;48.156;15.954;2022-08-14T08:28:08;9.00;;;7.43;;
37231;SDS011;23125;48.156;15.954;2022-08-14T08:30:40;8.38;;;6.90;;
37231;SDS011;23125;48.156;15.954;2022-08-14T08:33:13;7.75;;;6.85;;
37231;SDS011;23125;48.156;15.954;2022-08-14T08:35:40;10.65;;;7.93;;
37231;SDS011;23125;48.156;15.954;2022-08-14T08:38:08;9.98;;;8.40;;
37231;SDS011;23125;48.156;15.954;2022-08-14T08:40:38;10.25;;;8.98;;
37231;SDS011;23125;48.156;15.954;2022-08-14T08:45:40;41.03;;;25.67;;
37231;SDS011;23125;48.156;15.954;2022-08-14T08:48:06;21.25;;;15.25;;
37231;SDS011;23125;48.156;15.954;2022-08-14T08:50:33;12.05;;;9.38;;
37231;SDS011;23125;48.156;15.954;2022-08-14T08:53:05;34.03;;;20.50;;
37231;SDS011;23125;48.156;15.954;2022-08-14T08:55:34;9.73;;;7.70;;
37231;SDS011;23125;48.156;15.954;2022-08-14T08:58:15;10.30;;;8.60;;
37231;SDS011;23125;48.156;15.954;2022-08-14T09:00:50;14.52;;;10.68;;
37231;SDS011;23125;48.156;15.954;2022-08-14T09:03:21;11.68;;;9.32;;
37231;SDS011;23125;48.156;15.954;2022-08-14T09:05:54;14.32;;;9.40;;
37231;SDS011;23125;48.156;15.954;2022-08-14T09:08:22;13.15;;;10.75;;
37231;SDS011;23125;48.156;15.954;2022-08-14T09:10:51;9.35;;;8.05;;
37231;SDS011;23125;48.156;15.954;2022-08-14T09:13:18;10.70;;;8.05;;
37231;SDS011;23125;48.156;15.954;2022-08-14T09:15:47;16.40;;;12.45;;
37231;SDS011;23125;48.156;15.954;2022-08-14T09:18:15;8.40;;;7.50;;
37231;SDS011;23125;48.156;15.954;2022-08-14T09:20:45;8.55;;;7.60;;
37231;SDS011;23125;48.156;15.954;2022-08-14T09:25:39;8.23;;;7.15;;
37231;SDS011;23125;48.156;15.954;2022-08-14T09:28:07;8.50;;;6.82;;
37231;SDS011;23125;48.156;15.954;2022-08-14T09:30:39;8.48;;;7.57;;
37231;SDS011;23125;48.156;15.954;2022-08-14T09:39:23;8.68;;;6.90;;
37231;SDS011;23125;48.156;15.954;2022-08-14T09:55:31;8.60;;;7.70;;
37231;SDS011;23125;48.156;15.954;2022-08-14T09:58:18;8.43;;;6.75;;
37231;SDS011;23125;48.156;15.954;2022-08-14T10:00:46;9.57;;;7.32;;
37231;SDS011;23125;48.156;15.954;2022-08-14T10:03:27;8.13;;;7.32;;
37231;SDS011;23125;48.156;15.954;2022-08-14T10:06:12;8.02;;;6.65;;
37231;SDS011;23125;48.156;15.954;2022-08-14T10:08:48;8.70;;;7.13;;
37231;SDS011;23125;48.156;15.954;2022-08-14T10:13:47;6.68;;;6.07;;
37231;SDS011;23125;48.156;15.954;2022-08-14T10:16:22;8.32;;;7.22;;
37231;SDS011;23125;48.156;15.954;2022-08-14T10:19:06;7.68;;;6.75;;
37231;SDS011;23125;48.156;15.954;2022-08-14T10:21:34;7.15;;;6.45;;
37231;SDS011;23125;48.156;15.954;2022-08-14T10:24:02;8.43;;;7.28;;
37231;SDS011;23125;48.156;15.954;2022-08-14T10:26:33;7.90;;;6.63;;
37231;SDS011;23125;48.156;15.954;2022-08-14T10:29:06;8.85;;;6.93;;
37231;SDS011;23125;48.156;15.954;2022-08-14T10:31:35;8.55;;;7.35;;
37231;SDS011;23125;48.156;15.954;2022-08-14T10:34:06;9.68;;;7.20;;
37231;SDS011;23125;48.156;15.954;2022-08-14T10:36:38;8.30;;;6.78;;
37231;SDS011;23125;48.156;15.954;2022-08-14T10:39:07;7.55;;;6.80;;
37231;SDS011;23125;48.156;15.954;2022-08-14T10:41:41;10.27;;;6.80;;
37231;SDS011;23125;48.156;15.954;2022-08-14T10:44:09;8.48;;;7.28;;
37231;SDS011;23125;48.156;15.954;2022-08-14T10:49:19;7.72;;;6.95;;
37231;SDS011;23125;48.156;15.954;2022-08-14T11:02:35;7.90;;;7.07;;
37231;SDS011;23125;48.156;15.954;2022-08-14T11:07:31;8.77;;;7.40;;
37231;SDS011;23125;48.156;15.954;2022-08-14T11:10:06;8.43;;;7.13;;
37231;SDS011;23125;48.156;15.954;2022-08-14T11:12:45;6.70;;;6.00;;
37231;SDS011;23125;48.156;15.954;2022-08-14T11:15:14;8.40;;;7.03;;
37231;SDS011;23125;48.156;15.954;2022-08-14T11:17:46;8.55;;;7.32;;
37231;SDS011;23125;48.156;15.954;2022-08-14T11:20:15;8.10;;;7.13;;
37231;SDS011;23125;48.156;15.954;2022-08-14T11:22:46;8.13;;;6.95;;
37231;SDS011;23125;48.156;15.954;2022-08-14T11:25:14;8.32;;;6.80;;
37231;SDS011;23125;48.156;15.954;2022-08-14T11:27:44;8.02;;;7.22;;
37231;SDS011;23125;48.156;15.954;2022-08-14T11:30:12;7.95;;;6.30;;
37231;SDS011;23125;48.156;15.954;2022-08-14T11:32:41;7.05;;;6.32;;
37231;SDS011;23125;48.156;15.954;2022-08-14T11:35:12;8.38;;;6.95;;
37231;SDS011;23125;48.156;15.954;2022-08-14T11:40:17;7.60;;;6.80;;
37231;SDS011;23125;48.156;15.954;2022-08-14T11:42:47;8.55;;;7.22;;
37231;SDS011;23125;48.156;15.954;2022-08-14T11:45:16;7.60;;;6.80;;
37231;SDS011;23125;48.156;15.954;2022-08-14T11:47:42;8.10;;;6.70;;
37231;SDS011;23125;48.156;15.954;2022-08-14T11:50:19;7.43;;;6.53;;
37231;SDS011;23125;48.156;15.954;2022-08-14T11:52:50;7.85;;;7.05;;
37231;SDS011;23125;48.156;15.954;2022-08-14T11:55:17;8.55;;;6.45;;
37231;SDS011;23125;48.156;15.954;2022-08-14T11:57:44;8.23;;;7.32;;
37231;SDS011;23125;48.156;15.954;2022-08-14T12:00:12;7.25;;;6.43;;
37231;SDS011;23125;48.156;15.954;2022-08-14T12:02:53;9.07;;;7.00;;
37231;SDS011;23125;48.156;15.954;2022-08-14T12:05:27;7.03;;;6.32;;
37231;SDS011;23125;48.156;15.954;2022-08-14T12:07:58;7.57;;;6.15;;
37231;SDS011;23125;48.156;15.954;2022-08-14T12:10:25;7.32;;;5.93;;
37231;SDS011;23125;48.156;15.954;2022-08-14T12:12:54;7.13;;;6.40;;
37231;SDS011;23125;48.156;15.954;2022-08-14T12:15:28;7.40;;;6.10;;
37231;SDS011;23125;48.156;15.954;2022-08-14T12:17:55;7.28;;;6.57;;
37231;SDS011;23125;48.156;15.954;2022-08-14T12:20:30;7.53;;;6.03;;
37231;SDS011;23125;48.156;15.954;2022-08-14T12:22:58;9.60;;;6.78;;
37231;SDS011;23125;48.156;15.954;2022-08-14T12:25:26;6.88;;;6.20;;
37231;SDS011;23125;48.156;15.954;2022-08-14T12:27:53;8.25;;;6.60;;
37231;SDS011;23125;48.156;15.954;2022-08-14T12:30:29;7.85;;;7.00;;
37231;SDS011;23125;48.156;15.954;2022-08-14T12:32:59;7.50;;;6.68;;
37231;SDS011;23125;48.156;15.954;2022-08-14T12:35:38;7.78;;;6.20;;
37231;SDS011;23125;48.156;15.954;2022-08-14T12:38:06;6.78;;;6.07;;
37231;SDS011;23125;48.156;15.954;2022-08-14T12:40:52;8.13;;;6.35;;
37231;SDS011;23125;48.156;15.954;2022-08-14T12:43:18;7.05;;;6.18;;
37231;SDS011;23125;48.156;15.954;2022-08-14T12:45:46;7.00;;;6.40;;
37231;SDS011;23125;48.156;15.954;2022-08-14T12:48:14;7.20;;;6.50;;
37231;SDS011;23125;48.156;15.954;2022-08-14T12:50:42;6.78;;;5.70;;
37231;SDS011;23125;48.156;15.954;2022-08-14T12:53:09;8.45;;;6.38;;
37231;SDS011;23125;48.156;15.954;2022-08-14T12:55:36;7.10;;;6.22;;
37231;SDS011;23125;48.156;15.954;2022-08-14T12:58:04;9.18;;;6.40;;
37231;SDS011;23125;48.156;15.954;2022-08-14T13:00:32;6.85;;;6.05;;
37231;SDS011;23125;48.156;15.954;2022-08-14T13:03:00;7.20;;;6.43;;
37231;SDS011;23125;48.156;15.954;2022-08-14T13:05:27;7.88;;;6.47;;
37231;SDS011;23125;48.156;15.954;2022-08-14T13:07:54;6.78;;;6.07;;
37231;SDS011;23125;48.156;15.954;2022-08-14T13:10:21;7.38;;;6.60;;
37231;SDS011;23125;48.156;15.954;2022-08-14T13:12:49;7.43;;;6.70;;
37231;SDS011;23125;48.156;15.954;2022-08-14T13:15:18;7.75;;;6.95;;
37231;SDS011;23125;48.156;15.954;2022-08-14T13:17:45;7.53;;;6.70;;
37231;SDS011;23125;48.156;15.954;2022-08-14T13:20:13;9.10;;;7.22;;
37231;SDS011;23125;48.156;15.954;2022-08-14T13:22:41;8.20;;;6.60;;
37231;SDS011;23125;48.156;15.954;2022-08-14T13:25:16;6.80;;;5.93;;
37231;SDS011;23125;48.156;15.954;2022-08-14T13:27:44;7.15;;;6.40;;
37231;SDS011;23125;48.156;15.954;2022-08-14T13:30:11;7.07;;;6.38;;
37231;SDS011;23125;48.156;15.954;2022-08-14T13:32:38;7.40;;;6.38;;
37231;SDS011;23125;48.156;15.954;2022-08-14T13:35:09;8.75;;;7.05;;
37231;SDS011;23125;48.156;15.954;2022-08-14T13:37:36;6.57;;;5.85;;
37231;SDS011;23125;48.156;15.954;2022-08-14T13:40:04;8.85;;;6.45;;
37231;SDS011;23125;48.156;15.954;2022-08-14T13:42:31;6.20;;;5.60;;
37231;SDS011;23125;48.156;15.954;2022-08-14T13:44:57;8.05;;;6.05;;
37231;SDS011;23125;48.156;15.954;2022-08-14T13:49:58;6.53;;;5.78;;
37231;SDS011;23125;48.156;15.954;2022-08-14T13:52:29;6.80;;;6.05;;
37231;SDS011;23125;48.156;15.954;2022-08-14T13:55:04;5.65;;;4.97;;
37231;SDS011;23125;48.156;15.954;2022-08-14T13:57:32;7.35;;;5.53;;
37231;SDS011;23125;48.156;15.954;2022-08-14T14:00:04;6.72;;;5.63;;
37231;SDS011;23125;48.156;15.954;2022-08-14T14:02:37;7.40;;;5.78;;
37231;SDS011;23125;48.156;15.954;2022-08-14T14:05:07;6.18;;;5.57;;
37231;SDS011;23125;48.156;15.954;2022-08-14T14:07:36;6.55;;;5.43;;
37231;SDS011;23125;48.156;15.954;2022-08-14T14:10:07;6.88;;;5.50;;
37231;SDS011;23125;48.156;15.954;2022-08-14T14:12:34;6.10;;;4.47;;
37231;SDS011;23125;48.156;15.954;2022-08-14T14:15:09;5.18;;;4.50;;
37231;SDS011;23125;48.156;15.954;2022-08-14T14:17:38;5.78;;;4.88;;
37231;SDS011;23125;48.156;15.954;2022-08-14T14:20:06;5.20;;;4.63;;
37231;SDS011;23125;48.156;15.954;2022-08-14T14:22:40;5.90;;;4.88;;
37231;SDS011;23125;48.156;15.954;2022-08-14T14:25:10;6.15;;;4.65;;
37231;SDS011;23125;48.156;15.954;2022-08-14T14:27:39;5.20;;;4.70;;
37231;SDS011;23125;48.156;15.954;2022-08-14T14:30:10;6.68;;;4.78;;
37231;SDS011;23125;48.156;15.954;2022-08-14T14:32:38;5.30;;;4.78;;
37231;SDS011;23125;48.156;15.954;2022-08-14T14:35:06;6.30;;;5.43;;
37231;SDS011;23125;48.156;15.954;2022-08-14T14:37:44;5.82;;;5.22;;
37231;SDS011;23125;48.156;15.954;2022-08-14T14:40:11;6.53;;;5.05;;
37231;SDS011;23125;48.156;15.954;2022-08-14T14:42:57;6.38;;;5.05;;
37231;SDS011;23125;48.156;15.954;2022-08-14T14:45:27;7.70;;;5.15;;
37231;SDS011;23125;48.156;15.954;2022-08-14T14:47:55;6.00;;;5.25;;
37231;SDS011;23125;48.156;15.954;2022-08-14T14:50:21;6.63;;;5.57;;
37231;SDS011;23125;48.156;15.954;2022-08-14T14:52:48;6.65;;;5.55;;
37231;SDS011;23125;48.156;15.954;2022-08-14T14:55:15;5.13;;;4.63;;
37231;SDS011;23125;48.156;15.954;2022-08-14T14:57:42;6.28;;;4.80;;
37231;SDS011;23125;48.156;15.954;2022-08-14T15:00:10;5.40;;;4.63;;
37231;SDS011;23125;48.156;15.954;2022-08-14T15:02:48;6.20;;;5.25;;
37231;SDS011;23125;48.156;15.954;2022-08-14T15:05:16;5.63;;;5.13;;
37231;SDS011;23125;48.156;15.954;2022-08-14T15:07:44;5.15;;;4.65;;
37231;SDS011;23125;48.156;15.954;2022-08-14T15:10:12;5.20;;;4.68;;
37231;SDS011;23125;48.156;15.954;2022-08-14T15:12:40;5.57;;;4.60;;
37231;SDS011;23125;48.156;15.954;2022-08-14T15:15:08;5.35;;;4.32;;
37231;SDS011;23125;48.156;15.954;2022-08-14T15:17:35;6.20;;;4.28;;
37231;SDS011;23125;48.156;15.954;2022-08-14T15:20:02;5.65;;;4.80;;
37231;SDS011;23125;48.156;15.954;2022-08-14T15:22:34;6.05;;;4.35;;
37231;SDS011;23125;48.156;15.954;2022-08-14T15:25:03;5.93;;;4.68;;
37231;SDS011;23125;48.156;15.954;2022-08-14T15:27:34;5.57;;;4.10;;
37231;SDS011;23125;48.156;15.954;2022-08-14T15:30:01;5.00;;;4.35;;
37231;SDS011;23125;48.156;15.954;2022-08-14T15:32:29;5.15;;;4.47;;
37231;SDS011;23125;48.156;15.954;2022-08-14T15:34:55;4.80;;;4.30;;
37231;SDS011;23125;48.156;15.954;2022-08-14T15:37:23;4.60;;;4.20;;
37231;SDS011;23125;48.156;15.954;2022-08-14T15:39:49;5.43;;;4.32;;
37231;SDS011;23125;48.156;15.954;2022-08-14T15:42:15;5.53;;;4.40;;
37231;SDS011;23125;48.156;15.954;2022-08-14T15:44:45;5.10;;;4.55;;
37231;SDS011;23125;48.156;15.954;2022-08-14T15:47:12;5.78;;;4.68;;
37231;SDS011;23125;48.156;15.954;2022-08-14T15:49:39;5.68;;;4.55;;
37231;SDS011;23125;48.156;15.954;2022-08-14T15:52:06;5.22;;;4.50;;